Time;durP1;ratioP1;P1;durP2;ratioP2;P2;SDS_P1;SDS_P2;PMS_P1;PMS_P2;Temp;Humidity;BMP_temperature;BMP_pressure;BME280_temperature;BME280_humidity;BME280_pressure;Samples;Min_cycle;Max_cycle;Signal;HPM_P1;HPM_P2
2022/04/28 00:00:58;;;;;;;237.07;22.63;;;1.00;99.90;;;;;;5053392;28;20396;-84
2022/04/28 00:03:26;;;;;;;1152.90;209.80;;;0.90;99.90;;;;;;5048771;28;20382;-83
2022/04/28 00:05:53;;;;;;;1036.80;178.48;;;1.00;99.90;;;;;;5049327;28;20393;-83
2022/04/28 00:08:21;;;;;;;570.88;80.40;;;1.00;99.90;;;;;;5049368;28;20435;-82
2022/04/28 00:10:49;;;;;;;878.47;146.35;;;1.00;99.90;;;;;;5033896;28;20421;-82
2022/04/28 00:13:17;;;;;;;1590.85;273.50;;;1.10;99.90;;;;;;5044712;28;20455;-83
2022/04/28 00:15:45;;;;;;;776.20;136.03;;;1.10;99.90;;;;;;5048887;28;20393;-83
2022/04/28 00:18:12;;;;;;;1370.00;224.37;;;1.10;99.90;;;;;;5036904;28;20409;-82
2022/04/28 00:20:40;;;;;;;1183.43;220.38;;;1.10;99.90;;;;;;5049060;28;20404;-84
2022/04/28 00:23:07;;;;;;;1710.97;292.85;;;1.00;99.90;;;;;;5048773;28;20802;-83
2022/04/28 00:25:35;;;;;;;91.05;12.60;;;1.00;99.90;;;;;;5033784;28;20470;-82
2022/04/28 00:28:02;;;;;;;739.95;102.68;;;0.90;99.90;;;;;;5033945;28;20618;-83
2022/04/28 00:30:30;;;;;;;939.45;145.48;;;1.00;99.90;;;;;;5049019;28;20389;-82
2022/04/28 00:32:57;;;;;;;592.93;68.20;;;1.00;99.90;;;;;;5032688;28;20429;-82
2022/04/28 00:35:25;;;;;;;841.63;107.78;;;1.10;99.90;;;;;;5039044;28;20388;-82
2022/04/28 00:37:52;;;;;;;719.28;90.13;;;1.10;99.90;;;;;;5048490;28;20424;-83
2022/04/28 00:40:21;;;;;;;523.97;82.95;;;1.10;99.90;;;;;;5033502;28;20966;-83
2022/04/28 00:42:48;;;;;;;154.68;16.55;;;1.00;99.90;;;;;;5032622;28;20583;-83
2022/04/28 00:45:16;;;;;;;130.65;15.48;;;1.00;99.90;;;;;;5048246;28;20443;-83
2022/04/28 00:50:40;;;;;;;788.03;98.35;;;0.90;99.90;;;;;;5032002;28;20463;-83
2022/04/28 00:53:12;;;;;;;933.83;127.65;;;0.90;99.90;;;;;;5042895;28;20521;-82
2022/04/28 00:55:41;;;;;;;1070.50;157.48;;;0.90;99.90;;;;;;5036312;28;20389;-84
2022/04/28 00:58:10;;;;;;;851.50;117.33;;;0.90;99.90;;;;;;5032914;28;20401;-83
2022/04/28 01:00:41;;;;;;;195.97;18.80;;;0.90;99.90;;;;;;5033100;28;20407;-83
2022/04/28 01:03:14;;;;;;;1138.63;194.50;;;0.90;99.90;;;;;;5048368;28;20512;-83
2022/04/28 01:05:41;;;;;;;1031.43;152.27;;;0.90;99.90;;;;;;5031744;28;20393;-82
2022/04/28 01:08:09;;;;;;;968.50;151.15;;;0.90;99.90;;;;;;5031825;28;20431;-83
2022/04/28 01:10:37;;;;;;;431.40;50.95;;;0.90;99.90;;;;;;5044392;28;20402;-82
2022/04/28 01:13:05;;;;;;;1975.80;391.27;;;0.90;99.90;;;;;;5050965;28;20399;-83
2022/04/28 01:15:47;;;;;;;371.73;52.13;;;0.90;99.90;;;;;;5054783;28;20412;-82
2022/04/28 01:18:16;;;;;;;564.92;70.28;;;0.80;99.90;;;;;;5067479;28;20422;-82
2022/04/28 01:20:44;;;;;;;509.90;68.93;;;0.70;99.90;;;;;;5048928;28;20427;-84
2022/04/28 01:23:12;;;;;;;753.33;115.50;;;0.70;99.90;;;;;;5031101;28;20418;-83
2022/04/28 01:25:41;;;;;;;1965.77;353.27;;;0.70;99.90;;;;;;5066025;28;20391;-83
2022/04/28 01:28:09;;;;;;;623.05;94.35;;;0.70;99.90;;;;;;5066843;28;20411;-82
2022/04/28 01:30:37;;;;;;;1123.25;246.35;;;0.70;99.90;;;;;;5032239;28;20381;-82
2022/04/28 01:33:07;;;;;;;559.63;75.75;;;0.60;99.90;;;;;;5031077;28;20903;-81
2022/04/28 01:35:36;;;;;;;1999.90;419.10;;;0.60;99.90;;;;;;5030865;28;20404;-83
2022/04/28 01:38:05;;;;;;;1046.55;228.65;;;0.60;99.90;;;;;;5030854;28;20768;-82
2022/04/28 01:40:33;;;;;;;1568.93;295.60;;;0.60;99.90;;;;;;5047236;28;20396;-82
2022/04/28 01:43:02;;;;;;;1346.05;243.82;;;0.60;99.90;;;;;;5047515;28;20399;-83
2022/04/28 01:45:29;;;;;;;1961.15;409.48;;;0.50;99.90;;;;;;5047404;28;20402;-83
2022/04/28 01:48:10;;;;;;;1168.40;230.27;;;0.50;99.90;;;;;;5048985;28;20868;-83
2022/04/28 01:54:57;;;;;;;1728.10;334.40;;;0.60;99.90;;;;;;5050991;28;20403;-83
2022/04/28 01:56:43;;;;;;;370.13;56.30;;;0.50;99.90;;;;;;5034170;28;20448;-83
2022/04/28 01:59:32;;;;;;;1215.30;205.68;;;0.60;99.90;;;;;;5030403;28;20397;-84
2022/04/28 02:02:23;;;;;;;664.42;113.30;;;0.60;99.90;;;;;;5028666;28;20397;-83
2022/04/28 02:04:51;;;;;;;440.52;73.35;;;0.60;99.90;;;;;;5050619;28;20460;-82
2022/04/28 02:07:18;;;;;;;237.45;29.92;;;0.60;99.90;;;;;;5050159;28;20481;-83
2022/04/28 02:09:47;;;;;;;797.72;130.55;;;0.60;99.90;;;;;;5050608;28;20478;-83
2022/04/28 02:12:18;;;;;;;193.90;22.65;;;0.70;99.90;;;;;;5032971;28;20870;-84
2022/04/28 02:15:20;;;;;;;350.42;43.88;;;0.60;99.90;;;;;;5050532;28;20407;-84
2022/04/28 02:17:48;;;;;;;388.63;60.38;;;0.70;99.90;;;;;;5051157;28;20409;-83
2022/04/28 02:20:15;;;;;;;447.33;61.15;;;0.60;99.90;;;;;;5033471;28;20445;-83
2022/04/28 02:22:44;;;;;;;1942.30;368.25;;;0.50;99.90;;;;;;5065878;28;20396;-83
2022/04/28 02:25:12;;;;;;;1213.38;214.43;;;0.60;99.90;;;;;;5050236;28;20483;-83
2022/04/28 02:27:39;;;;;;;1480.43;249.45;;;0.50;99.90;;;;;;5042805;28;20475;-83
2022/04/28 02:30:07;;;;;;;1397.07;231.50;;;0.40;99.90;;;;;;5046798;28;20415;-82
2022/04/28 02:35:25;;;;;;;1031.78;150.35;;;0.40;99.90;;;;;;5030020;28;20404;-83
2022/04/28 02:37:53;;;;;;;1497.30;258.17;;;0.30;99.90;;;;;;5046458;28;20413;-83
2022/04/28 02:40:21;;;;;;;1258.78;198.50;;;0.30;99.90;;;;;;5040266;28;20801;-82
2022/04/28 02:42:49;;;;;;;1297.65;205.43;;;0.30;99.90;;;;;;5049638;28;20399;-82
2022/04/28 02:45:17;;;;;;;463.73;66.47;;;0.30;99.90;;;;;;5049857;28;20619;-83
2022/04/28 02:47:52;;;;;;;299.48;30.88;;;0.30;99.90;;;;;;5049609;28;20484;-82
2022/04/28 02:50:21;;;;;;;1132.72;207.00;;;0.20;99.90;;;;;;5050811;28;20394;-82
2022/04/28 02:52:52;;;;;;;830.35;137.02;;;0.20;99.90;;;;;;5047109;28;20430;-82
2022/04/28 02:55:20;;;;;;;504.52;69.95;;;0.10;99.90;;;;;;5033237;28;20393;-84
2022/04/28 02:57:48;;;;;;;523.15;77.68;;;0.20;99.90;;;;;;5057425;28;20976;-83
2022/04/28 03:00:16;;;;;;;1575.05;269.20;;;0.10;99.90;;;;;;5047260;28;20400;-84
2022/04/28 03:02:56;;;;;;;1372.63;224.63;;;0.20;99.90;;;;;;5049955;28;20411;-81
2022/04/28 03:05:24;;;;;;;425.85;81.50;;;0.20;99.90;;;;;;5048939;28;20388;-82
2022/04/28 03:10:49;;;;;;;206.48;20.02;;;0.10;99.90;;;;;;5039537;28;20401;-83
2022/04/28 03:13:22;;;;;;;596.50;78.60;;;0.10;99.90;;;;;;5030245;28;20914;-83
2022/04/28 03:15:53;;;;;;;784.90;115.32;;;0.10;99.90;;;;;;5037813;28;20768;-83
2022/04/28 03:18:34;;;;;;;1195.53;181.18;;;0.10;99.90;;;;;;5062816;28;20411;-83
2022/04/28 03:21:02;;;;;;;1674.07;276.70;;;0.20;99.90;;;;;;5049999;28;20400;-83
2022/04/28 03:23:30;;;;;;;1999.90;384.38;;;0.20;99.90;;;;;;5042198;28;20440;-84
2022/04/28 03:25:57;;;;;;;556.53;74.63;;;0.30;99.90;;;;;;5034837;28;20764;-83
2022/04/28 03:28:25;;;;;;;676.13;94.97;;;0.40;99.90;;;;;;5049908;28;20814;-82
2022/04/28 03:30:54;;;;;;;350.55;64.07;;;0.40;99.90;;;;;;5033407;28;20401;-84
2022/04/28 03:33:24;;;;;;;660.83;89.60;;;0.40;99.90;;;;;;5049966;28;20421;-83
2022/04/28 03:35:51;;;;;;;840.00;140.38;;;0.40;99.90;;;;;;5033487;28;20394;-82
2022/04/28 03:38:19;;;;;;;1349.78;226.13;;;0.40;99.90;;;;;;5034369;28;20466;-83
2022/04/28 03:40:47;;;;;;;913.83;148.13;;;0.40;99.90;;;;;;5037803;28;20392;-82
2022/04/28 03:43:14;;;;;;;260.17;37.10;;;0.40;99.90;;;;;;5049888;28;20394;-82
2022/04/28 03:45:42;;;;;;;720.97;117.03;;;0.30;99.90;;;;;;5048457;28;20908;-83
2022/04/28 03:48:17;;;;;;;1481.55;239.02;;;0.30;99.90;;;;;;5043288;28;20440;-84
2022/04/28 03:50:45;;;;;;;139.35;25.92;;;0.40;99.90;;;;;;5034944;28;20865;-83
2022/04/28 03:53:12;;;;;;;1430.95;234.82;;;0.40;99.90;;;;;;5037444;28;20396;-83
2022/04/28 03:55:41;;;;;;;148.48;15.50;;;0.40;99.90;;;;;;5049518;28;20397;-83
2022/04/28 03:58:09;;;;;;;205.07;21.40;;;0.30;99.90;;;;;;5049403;28;20398;-83
2022/04/28 04:00:36;;;;;;;378.10;67.00;;;0.20;99.90;;;;;;5052128;28;20401;-83
2022/04/28 04:03:08;;;;;;;243.43;29.67;;;0.10;99.90;;;;;;5060318;28;20414;-82
2022/04/28 04:05:36;;;;;;;937.22;139.75;;;0.10;99.90;;;;;;5032691;28;20439;-82
2022/04/28 04:08:04;;;;;;;620.10;102.53;;;0.20;99.90;;;;;;5033158;28;20480;-82
2022/04/28 04:10:41;;;;;;;1261.70;249.53;;;0.30;99.90;;;;;;5033446;28;20393;-82
2022/04/28 04:13:11;;;;;;;228.77;32.17;;;0.30;99.90;;;;;;5036365;28;20406;-83
2022/04/28 04:15:43;;;;;;;37.17;5.82;;;0.30;99.90;;;;;;5052308;28;20487;-82
2022/04/28 04:18:29;;;;;;;372.15;89.07;;;0.30;99.90;;;;;;5052950;28;20392;-84
2022/04/28 04:21:04;;;;;;;316.90;36.92;;;0.20;99.90;;;;;;5049229;28;20390;-83
2022/04/28 04:23:32;;;;;;;1044.40;150.30;;;0.20;99.90;;;;;;5036857;28;20413;-82
2022/04/28 04:26:01;;;;;;;217.23;26.83;;;0.30;99.90;;;;;;5050989;28;20397;-83
2022/04/28 04:28:29;;;;;;;47.17;8.10;;;0.30;99.90;;;;;;5052048;28;20450;-84
2022/04/28 04:34:12;;;;;;;267.00;65.80;;;0.30;99.90;;;;;;5029216;28;20394;-84
2022/04/28 04:36:41;;;;;;;370.08;64.57;;;0.20;99.90;;;;;;5031462;28;20459;-84
2022/04/28 04:39:10;;;;;;;301.05;48.05;;;0.30;99.90;;;;;;5048925;28;20949;-84
2022/04/28 04:41:40;;;;;;;175.73;19.63;;;0.30;99.90;;;;;;5032362;28;20577;-84
2022/04/28 04:44:13;;;;;;;211.13;34.00;;;0.40;99.90;;;;;;5035707;28;20432;-84
2022/04/28 04:46:45;;;;;;;138.68;15.63;;;0.40;99.90;;;;;;5048581;28;20488;-83
2022/04/28 04:49:49;;;;;;;274.23;35.30;;;0.50;99.90;;;;;;4972248;28;20461;-84
2022/04/28 04:52:19;;;;;;;428.00;68.20;;;0.50;99.90;;;;;;5021332;28;20412;-84
2022/04/28 04:55:16;;;;;;;271.85;31.05;;;0.60;99.90;;;;;;5032864;28;20414;-85
2022/04/28 04:57:57;;;;;;;420.17;84.18;;;0.60;99.90;;;;;;5033138;28;20409;-86
2022/04/28 05:00:25;;;;;;;521.35;83.05;;;0.60;99.90;;;;;;5032611;28;20429;-86
2022/04/28 05:03:15;;;;;;;202.43;38.50;;;0.70;99.90;;;;;;5023564;28;20542;-85
2022/04/28 05:05:55;;;;;;;67.90;10.43;;;0.70;99.90;;;;;;5052156;28;20384;-85
2022/04/28 05:08:29;;;;;;;167.35;22.42;;;0.80;99.90;;;;;;5068173;28;20469;-85
2022/04/28 05:11:05;;;;;;;128.85;14.73;;;0.80;99.90;;;;;;5048502;28;20471;-85
2022/04/28 05:13:33;;;;;;;298.85;46.30;;;0.90;99.90;;;;;;5048220;28;20452;-86
2022/04/28 05:16:04;;;;;;;145.23;16.42;;;0.90;99.90;;;;;;5040347;28;20782;-83
2022/04/28 05:18:43;;;;;;;240.45;29.85;;;0.90;99.90;;;;;;5031487;28;20420;-84
2022/04/28 05:21:26;;;;;;;463.08;73.93;;;1.00;99.90;;;;;;5048119;28;20390;-83
2022/04/28 05:23:55;;;;;;;261.98;59.30;;;1.10;99.90;;;;;;5047885;28;20856;-82
2022/04/28 05:26:43;;;;;;;94.00;9.43;;;1.10;99.90;;;;;;5050276;28;20738;-83
2022/04/28 05:29:49;;;;;;;388.13;51.15;;;1.10;99.90;;;;;;5010072;28;20399;-82
2022/04/28 05:32:37;;;;;;;1043.45;154.88;;;1.20;99.90;;;;;;4999994;28;20395;-83
2022/04/28 05:35:40;;;;;;;368.67;65.80;;;1.30;99.90;;;;;;5034426;28;20396;-83
2022/04/28 05:38:08;;;;;;;175.95;52.10;;;1.30;99.90;;;;;;5050695;28;20882;-83
2022/04/28 05:40:40;;;;;;;255.98;46.22;;;1.40;99.90;;;;;;5050418;28;20380;-83
2022/04/28 05:45:57;;;;;;;143.47;31.80;;;1.50;99.90;;;;;;5050609;28;20415;-83
2022/04/28 05:48:25;;;;;;;1355.22;197.57;;;1.50;99.90;;;;;;5050806;28;20719;-83
2022/04/28 05:50:57;;;;;;;405.95;57.83;;;1.60;99.90;;;;;;5066953;28;20399;-83
2022/04/28 05:53:25;;;;;;;466.88;103.30;;;1.70;99.90;;;;;;5050717;28;20504;-82
2022/04/28 05:56:00;;;;;;;228.38;38.72;;;1.70;99.90;;;;;;5050230;28;20399;-82
2022/04/28 05:58:50;;;;;;;188.18;30.90;;;1.70;99.90;;;;;;5050585;28;20475;-84
2022/04/28 06:01:37;;;;;;;273.67;40.15;;;1.70;99.90;;;;;;5051742;28;20427;-84
2022/04/28 06:04:07;;;;;;;275.10;50.22;;;1.70;99.90;;;;;;5050538;28;20392;-83
2022/04/28 06:06:40;;;;;;;161.05;20.10;;;1.60;99.90;;;;;;5051155;28;20886;-83
2022/04/28 06:09:20;;;;;;;367.08;54.20;;;1.70;99.90;;;;;;5050154;28;20411;-83
2022/04/28 06:11:48;;;;;;;280.48;48.78;;;1.70;99.90;;;;;;5050262;28;20893;-83
2022/04/28 06:14:15;;;;;;;777.45;135.93;;;1.80;99.90;;;;;;5066925;28;20446;-84
2022/04/28 06:17:02;;;;;;;425.17;96.10;;;1.80;99.90;;;;;;5051378;28;20932;-83
2022/04/28 06:19:30;;;;;;;723.67;101.55;;;2.00;99.90;;;;;;5066854;28;20870;-82
2022/04/28 06:22:04;;;;;;;93.07;14.40;;;2.10;99.90;;;;;;5050518;28;20800;-83
2022/04/28 06:24:42;;;;;;;520.05;82.63;;;2.20;99.90;;;;;;5066155;28;20400;-83
2022/04/28 06:27:12;;;;;;;211.13;42.22;;;2.20;99.90;;;;;;5033928;28;20475;-83
2022/04/28 06:29:44;;;;;;;1289.13;166.93;;;2.20;99.90;;;;;;5049802;28;20407;-82
2022/04/28 06:32:12;;;;;;;653.13;93.63;;;2.10;99.90;;;;;;5050008;28;20777;-84
2022/04/28 06:34:58;;;;;;;406.23;69.00;;;2.10;99.90;;;;;;5051351;28;20375;-83
2022/04/28 06:37:31;;;;;;;125.38;26.92;;;2.10;99.90;;;;;;5051044;28;20404;-84
2022/04/28 06:40:03;;;;;;;324.88;48.72;;;2.00;99.90;;;;;;5066601;28;20486;-84
2022/04/28 06:42:31;;;;;;;169.73;23.35;;;2.30;99.90;;;;;;5049580;28;20394;-83
2022/04/28 06:45:23;;;;;;;383.33;65.28;;;2.40;99.90;;;;;;5043693;28;20427;-83
2022/04/28 06:47:57;;;;;;;356.65;76.82;;;2.40;99.90;;;;;;5042296;28;20475;-84
2022/04/28 06:50:40;;;;;;;466.70;91.18;;;2.30;99.90;;;;;;5043419;28;20463;-84
2022/04/28 06:53:34;;;;;;;290.92;47.47;;;2.30;99.90;;;;;;5039108;28;20424;-83
2022/04/28 06:56:07;;;;;;;375.42;77.88;;;2.40;99.90;;;;;;5037189;28;20763;-83
2022/04/28 06:59:01;;;;;;;376.50;57.13;;;2.40;99.90;;;;;;5051739;28;20465;-84
2022/04/28 07:01:32;;;;;;;142.00;23.67;;;2.50;99.90;;;;;;5066339;28;20397;-85
2022/04/28 07:04:09;;;;;;;343.98;54.67;;;2.60;99.90;;;;;;5040145;28;20393;-83
2022/04/28 07:06:37;;;;;;;142.68;29.23;;;2.70;99.90;;;;;;5048550;28;20401;-83
2022/04/28 07:09:05;;;;;;;406.97;85.00;;;3.00;99.90;;;;;;5048830;28;20409;-83
2022/04/28 07:11:33;;;;;;;1812.03;205.15;;;3.00;99.90;;;;;;5048890;28;20411;-83
2022/04/28 07:14:25;;;;;;;561.72;92.38;;;3.00;99.90;;;;;;5041072;28;20540;-82
2022/04/28 07:17:11;;;;;;;358.33;48.13;;;3.10;99.90;;;;;;5040355;28;20890;-83
2022/04/28 07:19:53;;;;;;;140.27;25.75;;;3.00;99.90;;;;;;5040628;28;20417;-83
2022/04/28 07:22:21;;;;;;;423.70;50.17;;;3.20;99.90;;;;;;5038222;28;20404;-84
2022/04/28 07:24:48;;;;;;;381.83;64.77;;;3.10;99.90;;;;;;5050077;28;20393;-84
2022/04/28 07:27:17;;;;;;;483.67;45.97;;;3.20;99.90;;;;;;5033558;28;20953;-83
2022/04/28 07:29:50;;;;;;;123.40;25.20;;;3.30;99.90;;;;;;5049945;28;20740;-83
2022/04/28 07:32:33;;;;;;;27.93;3.00;;;3.30;99.90;;;;;;5033323;28;20397;-83
2022/04/28 07:35:21;;;;;;;184.30;26.88;;;3.30;99.90;;;;;;5035559;28;20409;-83
2022/04/28 07:38:09;;;;;;;52.60;7.07;;;3.30;99.90;;;;;;5034532;28;20389;-82
2022/04/28 07:40:43;;;;;;;634.53;85.70;;;3.30;99.90;;;;;;5033130;28;20496;-84
2022/04/28 07:43:16;;;;;;;239.00;52.33;;;3.40;99.90;;;;;;5033150;28;20404;-84
2022/04/28 07:45:50;;;;;;;675.35;124.28;;;3.80;99.90;;;;;;5040583;28;20396;-82
2022/04/28 07:48:21;;;;;;;500.13;72.32;;;3.80;99.90;;;;;;5049179;28;20446;-83
2022/04/28 07:50:50;;;;;;;1300.53;119.22;;;4.00;99.90;;;;;;5033515;28;20388;-82
2022/04/28 07:53:27;;;;;;;1106.65;97.85;;;4.00;99.90;;;;;;5049396;28;20467;-82
2022/04/28 07:56:14;;;;;;;260.67;52.90;;;4.10;99.90;;;;;;5033908;28;20396;-83
2022/04/28 07:58:48;;;;;;;338.55;53.55;;;4.00;99.90;;;;;;5049614;28;20393;-82
2022/04/28 08:01:49;;;;;;;367.27;67.50;;;3.80;99.90;;;;;;5040037;28;20394;-83
2022/04/28 08:04:17;;;;;;;515.53;107.38;;;3.70;99.90;;;;;;5052312;28;20388;-83
2022/04/28 08:06:54;;;;;;;215.02;56.50;;;3.70;99.90;;;;;;5068737;28;20391;-83
2022/04/28 08:09:22;;;;;;;104.37;19.80;;;3.60;99.90;;;;;;5052229;28;20433;-83
2022/04/28 08:11:49;;;;;;;258.40;45.05;;;3.50;99.90;;;;;;5052384;28;20873;-83
2022/04/28 08:14:17;;;;;;;132.90;23.02;;;3.40;99.90;;;;;;5052235;28;20487;-83
2022/04/28 08:16:46;;;;;;;142.93;20.67;;;3.50;99.90;;;;;;5052209;28;20384;-84
2022/04/28 08:19:16;;;;;;;433.77;61.97;;;3.60;99.90;;;;;;5052063;28;20414;-82
2022/04/28 08:21:50;;;;;;;288.38;43.65;;;3.80;99.90;;;;;;5052016;28;20805;-83
2022/04/28 08:24:20;;;;;;;462.30;83.10;;;4.00;99.90;;;;;;5051696;28;20396;-83
2022/04/28 08:26:47;;;;;;;251.02;35.78;;;4.00;99.90;;;;;;5051605;28;20431;-82
2022/04/28 08:29:15;;;;;;;1.38;0.40;;;4.10;99.90;;;;;;5068655;28;20396;-83
2022/04/28 08:31:49;;;;;;;82.40;9.30;;;4.20;99.90;;;;;;5050552;28;20479;-84
2022/04/28 08:34:22;;;;;;;289.70;53.58;;;4.20;99.90;;;;;;5048653;28;20400;-82
2022/04/28 08:36:52;;;;;;;209.88;38.90;;;4.10;99.90;;;;;;5032230;28;20407;-83
2022/04/28 08:39:22;;;;;;;585.22;105.78;;;4.10;99.90;;;;;;5032011;28;20505;-83
2022/04/28 08:41:49;;;;;;;175.88;27.00;;;4.20;99.90;;;;;;5032281;28;20933;-84
2022/04/28 08:44:22;;;;;;;612.92;89.93;;;4.40;99.90;;;;;;5033726;28;20875;-84
2022/04/28 08:47:13;;;;;;;217.50;30.60;;;4.40;99.90;;;;;;5038425;28;20403;-83
2022/04/28 08:49:50;;;;;;;373.45;60.17;;;4.40;99.90;;;;;;5051775;28;20761;-83
2022/04/28 08:52:31;;;;;;;380.37;51.60;;;4.60;99.90;;;;;;5068061;28;20473;-82
2022/04/28 08:55:11;;;;;;;84.97;20.33;;;4.70;99.90;;;;;;5031821;28;20456;-83
2022/04/28 08:57:39;;;;;;;309.60;46.13;;;4.70;99.90;;;;;;5033198;28;20390;-83
2022/04/28 09:00:07;;;;;;;161.88;26.58;;;4.60;99.90;;;;;;5032824;28;20405;-83
2022/04/28 09:03:00;;;;;;;297.27;42.27;;;4.50;99.90;;;;;;5028425;28;20463;-82
2022/04/28 09:05:51;;;;;;;960.50;116.53;;;4.40;99.90;;;;;;5023851;28;20391;-82
2022/04/28 09:08:39;;;;;;;716.95;111.82;;;4.60;99.90;;;;;;5052218;28;20884;-83
2022/04/28 09:11:28;;;;;;;351.52;36.53;;;5.00;99.90;;;;;;5051344;28;20395;-82
2022/04/28 09:14:25;;;;;;;418.77;62.83;;;4.80;99.90;;;;;;5052258;28;20399;-83
2022/04/28 09:16:56;;;;;;;538.55;71.95;;;4.90;99.90;;;;;;5067576;28;20399;-84
2022/04/28 09:19:29;;;;;;;218.02;36.15;;;4.80;99.90;;;;;;5051042;28;20410;-83
2022/04/28 09:22:01;;;;;;;154.40;25.30;;;4.70;99.90;;;;;;5051135;28;20462;-84
2022/04/28 09:24:29;;;;;;;28.63;3.80;;;4.70;99.90;;;;;;5051200;28;20432;-83
2022/04/28 09:27:00;;;;;;;368.48;84.75;;;4.50;99.90;;;;;;5047782;28;20421;-83
2022/04/28 09:29:30;;;;;;;610.15;76.03;;;4.60;99.90;;;;;;5031534;28;20957;-84
2022/04/28 09:31:58;;;;;;;46.88;8.30;;;4.80;99.90;;;;;;5031566;28;20914;-83
2022/04/28 09:35:09;;;;;;;143.82;23.30;;;5.10;99.90;;;;;;5032246;28;20384;-84
2022/04/28 09:37:48;;;;;;;474.42;73.10;;;5.10;99.90;;;;;;5030998;28;20398;-82
2022/04/28 09:43:03;;;;;;;738.28;82.53;;;5.00;99.90;;;;;;5050627;28;20391;-83
2022/04/28 09:45:38;;;;;;;340.25;50.38;;;4.90;99.90;;;;;;5050679;28;20445;-83
2022/04/28 09:48:07;;;;;;;1.55;0.50;;;4.90;99.90;;;;;;5050823;28;20391;-83
2022/04/28 09:50:41;;;;;;;282.30;49.35;;;4.90;99.90;;;;;;5050386;28;20450;-83
2022/04/28 09:53:35;;;;;;;416.67;57.42;;;5.00;99.90;;;;;;5051813;28;20457;-85
2022/04/28 09:56:36;;;;;;;306.85;28.70;;;5.20;99.90;;;;;;5015870;28;20473;-83
2022/04/28 09:59:13;;;;;;;353.43;55.87;;;5.50;99.90;;;;;;5046979;28;20432;-84
2022/04/28 10:01:43;;;;;;;526.85;57.05;;;5.50;99.90;;;;;;5030691;28;20393;-82
2022/04/28 10:04:13;;;;;;;423.65;74.47;;;5.70;99.60;;;;;;5040863;28;21011;-82
2022/04/28 10:07:17;;;;;;;237.40;40.60;;;5.60;99.30;;;;;;5026947;28;20408;-84
2022/04/28 10:09:51;;;;;;;703.78;78.97;;;5.50;99.90;;;;;;5030589;28;20395;-83
2022/04/28 10:12:25;;;;;;;389.60;67.55;;;5.40;98.40;;;;;;5030651;28;20752;-83
2022/04/28 10:15:24;;;;;;;85.35;12.10;;;5.40;98.80;;;;;;5026490;28;20398;-83
2022/04/28 10:17:54;;;;;;;349.83;46.58;;;5.50;99.80;;;;;;5051420;28;20949;-84
2022/04/28 10:20:35;;;;;;;152.73;28.10;;;6.10;98.90;;;;;;5046834;28;20409;-84
2022/04/28 10:32:22;;;;;;;554.97;62.83;;;6.20;99.90;;;;;;5030664;28;20398;-84
2022/04/28 10:32:56;;;;;;;153.68;21.92;;;5.80;99.70;;;;;;5051223;28;20395;-84
2022/04/28 10:35:42;;;;;;;158.98;20.83;;;5.90;99.90;;;;;;5044719;28;20914;-83
2022/04/28 10:38:14;;;;;;;150.55;24.38;;;6.00;98.40;;;;;;5049396;28;20429;-83
2022/04/28 10:41:01;;;;;;;129.93;27.80;;;6.10;99.20;;;;;;5033165;28;20431;-84
2022/04/28 10:43:32;;;;;;;155.10;23.73;;;6.10;99.90;;;;;;5033121;28;20394;-83
2022/04/28 10:46:08;;;;;;;74.55;8.65;;;6.10;99.90;;;;;;5031214;28;20388;-84
2022/04/28 10:48:42;;;;;;;367.85;34.88;;;6.10;99.90;;;;;;5046610;28;20390;-83
2022/04/28 10:51:27;;;;;;;1.80;0.50;;;6.10;99.60;;;;;;5035464;28;20391;-84
2022/04/28 10:54:16;;;;;;;384.30;49.58;;;5.90;99.50;;;;;;5038211;28;20763;-83
2022/04/28 10:56:54;;;;;;;841.50;84.37;;;6.10;99.90;;;;;;5030130;28;20393;-84
2022/04/28 10:59:34;;;;;;;556.33;72.57;;;6.60;99.90;;;;;;5029772;28;20463;-83
2022/04/28 11:02:26;;;;;;;1020.85;105.35;;;6.80;99.80;;;;;;5045971;28;20390;-82
2022/04/28 11:05:03;;;;;;;257.40;33.60;;;6.80;97.40;;;;;;5025264;28;20389;-84
2022/04/28 11:07:32;;;;;;;789.97;85.53;;;6.80;99.90;;;;;;5039426;28;20399;-84
2022/04/28 11:10:02;;;;;;;901.65;80.35;;;7.20;99.70;;;;;;5038764;28;20827;-84
2022/04/28 11:12:35;;;;;;;1058.75;124.07;;;7.20;98.00;;;;;;5031556;28;20416;-83
2022/04/28 11:15:12;;;;;;;824.08;95.25;;;7.10;96.30;;;;;;5030110;28;20796;-83
2022/04/28 11:17:45;;;;;;;759.50;79.03;;;7.10;99.30;;;;;;5029908;28;20469;-84
2022/04/28 11:20:19;;;;;;;1171.80;124.25;;;7.20;95.70;;;;;;5031009;28;20910;-83
2022/04/28 11:22:55;;;;;;;182.52;19.52;;;7.40;98.30;;;;;;5065872;28;20396;-83
2022/04/28 11:25:23;;;;;;;387.83;63.50;;;7.40;95.90;;;;;;5050387;28;20394;-84
2022/04/28 11:27:52;;;;;;;499.67;86.82;;;7.40;97.90;;;;;;5049642;28;20746;-83
2022/04/28 11:30:25;;;;;;;881.35;95.80;;;7.30;96.90;;;;;;5049407;28;20449;-83
2022/04/28 11:32:58;;;;;;;492.08;84.78;;;7.30;93.90;;;;;;5049626;28;20730;-83
2022/04/28 11:35:31;;;;;;;228.20;33.80;;;7.00;95.60;;;;;;5051014;28;20881;-84
2022/04/28 11:38:00;;;;;;;201.98;43.05;;;6.90;96.30;;;;;;5049949;28;20392;-84
2022/04/28 11:40:29;;;;;;;385.50;56.60;;;6.80;96.90;;;;;;5050733;28;20499;-84
2022/04/28 11:43:01;;;;;;;481.17;78.05;;;6.80;96.70;;;;;;5049833;28;20384;-85
2022/04/28 11:45:31;;;;;;;761.83;102.47;;;7.20;98.50;;;;;;5051687;28;20874;-85
2022/04/28 11:48:01;;;;;;;650.17;64.23;;;7.20;96.10;;;;;;5053329;28;20423;-84
2022/04/28 11:50:32;;;;;;;1019.25;92.90;;;7.00;97.20;;;;;;5053257;28;20384;-84
2022/04/28 11:53:09;;;;;;;1463.17;94.67;;;6.80;96.40;;;;;;5054457;28;20391;-85
2022/04/28 11:55:40;;;;;;;699.95;93.78;;;6.60;95.30;;;;;;5053107;28;20388;-85
2022/04/28 11:58:10;;;;;;;5.00;1.10;;;6.50;94.50;;;;;;5054416;28;20392;-84
2022/04/28 12:00:43;;;;;;;46.33;12.90;;;6.50;98.10;;;;;;5053993;28;20526;-83
2022/04/28 12:03:25;;;;;;;1108.88;103.57;;;6.50;96.70;;;;;;5054308;28;20471;-84
2022/04/28 12:05:54;;;;;;;459.45;72.50;;;6.60;95.50;;;;;;5069966;28;20490;-84
2022/04/28 12:08:23;;;;;;;256.08;34.88;;;6.60;97.80;;;;;;5049346;28;20889;-85
2022/04/28 12:19:20;;;;;;;34.28;7.88;;;6.90;96.80;;;;;;5045797;28;20408;-85
2022/04/28 12:21:48;;;;;;;57.70;7.70;;;6.90;96.80;;;;;;5046748;28;20436;-84
2022/04/28 12:24:20;;;;;;;379.42;45.03;;;6.90;97.60;;;;;;5044917;28;20453;-83
2022/04/28 12:26:49;;;;;;;61.10;5.20;;;7.10;98.20;;;;;;5035322;28;20810;-84
2022/04/28 12:29:19;;;;;;;313.43;33.90;;;7.00;98.50;;;;;;5039658;28;20395;-83
2022/04/28 12:31:55;;;;;;;507.67;66.65;;;7.30;96.60;;;;;;5043274;28;20397;-83
2022/04/28 12:34:26;;;;;;;395.60;59.58;;;7.50;95.40;;;;;;5032731;28;20392;-83
2022/04/28 12:37:00;;;;;;;305.23;35.70;;;7.40;96.30;;;;;;5040857;28;20436;-83
2022/04/28 12:39:52;;;;;;;199.07;33.33;;;7.20;96.50;;;;;;5032684;28;20393;-84
2022/04/28 12:42:19;;;;;;;248.00;39.50;;;7.20;96.50;;;;;;5051914;28;20426;-83
2022/04/28 12:44:47;;;;;;;486.35;80.20;;;7.20;97.10;;;;;;5048569;28;20938;-81
2022/04/28 12:47:14;;;;;;;698.75;73.90;;;7.10;95.00;;;;;;5041383;28;20455;-83
2022/04/28 12:49:48;;;;;;;70.95;11.82;;;7.10;94.80;;;;;;5042399;28;20388;-84
2022/04/28 12:52:30;;;;;;;909.95;81.05;;;7.30;96.10;;;;;;5064911;28;20397;-85
2022/04/28 12:55:05;;;;;;;1137.18;97.30;;;7.70;94.20;;;;;;5032185;28;20382;-84
2022/04/28 12:57:33;;;;;;;1046.43;84.67;;;7.60;94.10;;;;;;5031680;28;20764;-84
2022/04/28 13:00:06;;;;;;;912.72;105.47;;;7.40;93.40;;;;;;5032642;28;20447;-82
2022/04/28 13:02:35;;;;;;;465.25;71.32;;;7.20;94.10;;;;;;5031662;28;20476;-81
2022/04/28 13:05:17;;;;;;;30.30;2.60;;;7.10;94.80;;;;;;5032708;28;20472;-82
2022/04/28 13:08:02;;;;;;;24.02;4.70;;;7.00;96.40;;;;;;5050493;28;20839;-82
2022/04/28 13:10:30;;;;;;;324.90;44.90;;;7.00;95.40;;;;;;5047707;28;20385;-81
2022/04/28 13:12:57;;;;;;;75.90;12.70;;;6.90;95.60;;;;;;5031285;28;20428;-82
2022/04/28 13:15:25;;;;;;;445.63;56.17;;;6.90;96.70;;;;;;5038321;28;20485;-82
2022/04/28 13:17:52;;;;;;;810.17;65.30;;;6.80;96.80;;;;;;5036389;28;20420;-82
2022/04/28 13:20:20;;;;;;;158.23;28.40;;;6.80;96.00;;;;;;5043596;28;20459;-83
2022/04/28 13:22:48;;;;;;;334.57;44.10;;;6.80;97.10;;;;;;5037741;28;20511;-83
2022/04/28 13:25:16;;;;;;;719.97;74.10;;;6.70;96.50;;;;;;5033906;28;20387;-83
2022/04/28 13:27:44;;;;;;;474.88;50.22;;;6.70;95.50;;;;;;5031459;28;20393;-83
2022/04/28 13:30:13;;;;;;;286.67;44.92;;;6.70;97.20;;;;;;5032391;28;20948;-82
2022/04/28 13:32:42;;;;;;;479.35;63.42;;;6.70;97.20;;;;;;5035379;28;20394;-83